sensor_id;sensor_type;location;lat;lon;timestamp;temperature;humidity
22925;DHT22;11628;51.072;3.712;2023-03-23T00:01:57;12.90;99.90
22925;DHT22;11628;51.072;3.712;2023-03-23T00:04:23;12.90;99.90
22925;DHT22;11628;51.072;3.712;2023-03-23T00:06:52;12.90;99.90
22925;DHT22;11628;51.072;3.712;2023-03-23T00:09:18;12.90;99.90
22925;DHT22;11628;51.072;3.712;2023-03-23T00:11:49;12.90;99.90
22925;DHT22;11628;51.072;3.712;2023-03-23T00:14:16;12.90;99.90
22925;DHT22;11628;51.072;3.712;2023-03-23T00:16:48;12.90;99.90
22925;DHT22;11628;51.072;3.712;2023-03-23T00:19:15;12.90;99.90
22925;DHT22;11628;51.072;3.712;2023-03-23T00:21:42;12.90;99.90
22925;DHT22;11628;51.072;3.712;2023-03-23T00:24:16;12.90;99.90
22925;DHT22;11628;51.072;3.712;2023-03-23T00:26:44;12.90;99.90
22925;DHT22;11628;51.072;3.712;2023-03-23T00:29:19;12.90;99.90
22925;DHT22;11628;51.072;3.712;2023-03-23T00:31:47;12.90;99.90
22925;DHT22;11628;51.072;3.712;2023-03-23T00:34:19;12.80;99.90
22925;DHT22;11628;51.072;3.712;2023-03-23T00:36:50;12.80;99.90
22925;DHT22;11628;51.072;3.712;2023-03-23T00:39:16;12.70;99.90
22925;DHT22;11628;51.072;3.712;2023-03-23T00:41:43;12.70;99.90
22925;DHT22;11628;51.072;3.712;2023-03-23T00:44:09;12.70;99.90
22925;DHT22;11628;51.072;3.712;2023-03-23T00:46:35;12.70;99.90
22925;DHT22;11628;51.072;3.712;2023-03-23T00:49:13;12.80;99.90
22925;DHT22;11628;51.072;3.712;2023-03-23T00:51:41;12.80;99.90
22925;DHT22;11628;51.072;3.712;2023-03-23T00:54:07;12.80;99.90
22925;DHT22;11628;51.072;3.712;2023-03-23T00:56:33;12.80;99.90
22925;DHT22;11628;51.072;3.712;2023-03-23T00:58:59;12.80;99.90
22925;DHT22;11628;51.072;3.712;2023-03-23T01:01:25;12.80;99.90
22925;DHT22;11628;51.072;3.712;2023-03-23T01:03:51;12.80;99.90
22925;DHT22;11628;51.072;3.712;2023-03-23T01:06:18;12.80;99.90
22925;DHT22;11628;51.072;3.712;2023-03-23T01:08:44;12.70;99.90
22925;DHT22;11628;51.072;3.712;2023-03-23T01:11:15;12.80;99.90
22925;DHT22;11628;51.072;3.712;2023-03-23T01:13:42;12.80;99.90
22925;DHT22;11628;51.072;3.712;2023-03-23T01:16:09;12.80;99.90
22925;DHT22;11628;51.072;3.712;2023-03-23T01:18:36;12.80;99.90
22925;DHT22;11628;51.072;3.712;2023-03-23T01:21:10;12.80;99.90
22925;DHT22;11628;51.072;3.712;2023-03-23T01:23:38;12.80;99.90
22925;DHT22;11628;51.072;3.712;2023-03-23T01:26:10;12.80;99.90
22925;DHT22;11628;51.072;3.712;2023-03-23T01:28:36;12.80;99.90
22925;DHT22;11628;51.072;3.712;2023-03-23T01:31:09;12.80;99.90
22925;DHT22;11628;51.072;3.712;2023-03-23T01:33:37;12.80;99.90
22925;DHT22;11628;51.072;3.712;2023-03-23T01:36:05;12.80;99.90
22925;DHT22;11628;51.072;3.712;2023-03-23T01:38:33;12.70;99.90
22925;DHT22;11628;51.072;3.712;2023-03-23T01:40:59;12.70;99.90
22925;DHT22;11628;51.072;3.712;2023-03-23T01:43:25;12.80;99.90
22925;DHT22;11628;51.072;3.712;2023-03-23T01:45:51;12.70;99.90
22925;DHT22;11628;51.072;3.712;2023-03-23T01:48:37;12.80;99.90
22925;DHT22;11628;51.072;3.712;2023-03-23T01:51:04;12.70;99.90
22925;DHT22;11628;51.072;3.712;2023-03-23T01:53:37;12.70;99.90
22925;DHT22;11628;51.072;3.712;2023-03-23T01:56:04;12.70;99.90
22925;DHT22;11628;51.072;3.712;2023-03-23T01:58:33;12.70;99.90
22925;DHT22;11628;51.072;3.712;2023-03-23T02:01:02;12.80;99.90
22925;DHT22;11628;51.072;3.712;2023-03-23T02:03:29;12.80;99.90
22925;DHT22;11628;51.072;3.712;2023-03-23T02:05:57;12.80;99.90
22925;DHT22;11628;51.072;3.712;2023-03-23T02:08:29;12.80;99.90
22925;DHT22;11628;51.072;3.712;2023-03-23T02:10:58;12.80;99.90
22925;DHT22;11628;51.072;3.712;2023-03-23T02:13:25;12.80;99.90
22925;DHT22;11628;51.072;3.712;2023-03-23T02:16:12;12.80;99.90
22925;DHT22;11628;51.072;3.712;2023-03-23T02:18:59;12.80;99.90
22925;DHT22;11628;51.072;3.712;2023-03-23T02:22:06;12.80;99.90
22925;DHT22;11628;51.072;3.712;2023-03-23T02:25:00;12.80;99.90
22925;DHT22;11628;51.072;3.712;2023-03-23T02:33:40;12.80;99.90
22925;DHT22;11628;51.072;3.712;2023-03-23T02:36:19;12.80;99.90
22925;DHT22;11628;51.072;3.712;2023-03-23T02:41:33;12.80;99.90
22925;DHT22;11628;51.072;3.712;2023-03-23T02:44:03;12.80;99.90
22925;DHT22;11628;51.072;3.712;2023-03-23T02:46:29;12.80;99.90
22925;DHT22;11628;51.072;3.712;2023-03-23T02:48:57;12.90;99.90
22925;DHT22;11628;51.072;3.712;2023-03-23T02:51:24;12.80;99.90
22925;DHT22;11628;51.072;3.712;2023-03-23T02:53:52;12.80;99.90
22925;DHT22;11628;51.072;3.712;2023-03-23T02:56:19;12.90;99.90
22925;DHT22;11628;51.072;3.712;2023-03-23T02:58:46;12.90;99.90
22925;DHT22;11628;51.072;3.712;2023-03-23T03:04:03;12.90;99.90
22925;DHT22;11628;51.072;3.712;2023-03-23T03:12:09;12.80;99.90
22925;DHT22;11628;51.072;3.712;2023-03-23T03:14:48;12.60;99.90
22925;DHT22;11628;51.072;3.712;2023-03-23T03:17:25;12.50;99.90
22925;DHT22;11628;51.072;3.712;2023-03-23T03:19:56;12.40;99.90
22925;DHT22;11628;51.072;3.712;2023-03-23T03:22:23;12.50;99.90
22925;DHT22;11628;51.072;3.712;2023-03-23T03:24:58;12.50;99.90
22925;DHT22;11628;51.072;3.712;2023-03-23T03:27:25;12.50;99.90
22925;DHT22;11628;51.072;3.712;2023-03-23T03:29:55;12.40;99.90
22925;DHT22;11628;51.072;3.712;2023-03-23T03:32:26;12.20;99.90
22925;DHT22;11628;51.072;3.712;2023-03-23T03:34:58;12.10;99.90
22925;DHT22;11628;51.072;3.712;2023-03-23T03:37:24;11.90;99.90
22925;DHT22;11628;51.072;3.712;2023-03-23T03:39:50;11.80;99.90
22925;DHT22;11628;51.072;3.712;2023-03-23T03:42:16;11.80;99.90
22925;DHT22;11628;51.072;3.712;2023-03-23T03:44:42;11.80;99.90
22925;DHT22;11628;51.072;3.712;2023-03-23T03:47:08;11.80;99.90
22925;DHT22;11628;51.072;3.712;2023-03-23T03:49:34;11.80;99.90
22925;DHT22;11628;51.072;3.712;2023-03-23T03:52:00;11.80;99.90
22925;DHT22;11628;51.072;3.712;2023-03-23T03:54:26;11.90;99.90
22925;DHT22;11628;51.072;3.712;2023-03-23T03:56:51;11.90;99.90
22925;DHT22;11628;51.072;3.712;2023-03-23T03:59:24;11.90;99.90
22925;DHT22;11628;51.072;3.712;2023-03-23T04:01:51;11.90;99.90
22925;DHT22;11628;51.072;3.712;2023-03-23T04:04:19;11.90;99.90
22925;DHT22;11628;51.072;3.712;2023-03-23T04:06:45;11.90;99.90
22925;DHT22;11628;51.072;3.712;2023-03-23T04:09:14;12.00;99.90
22925;DHT22;11628;51.072;3.712;2023-03-23T04:11:40;12.00;99.90
22925;DHT22;11628;51.072;3.712;2023-03-23T04:14:06;12.00;99.90
22925;DHT22;11628;51.072;3.712;2023-03-23T04:16:32;12.10;99.90
22925;DHT22;11628;51.072;3.712;2023-03-23T04:19:00;12.20;99.90
22925;DHT22;11628;51.072;3.712;2023-03-23T04:21:26;12.20;99.90
22925;DHT22;11628;51.072;3.712;2023-03-23T04:23:55;12.30;99.90
22925;DHT22;11628;51.072;3.712;2023-03-23T04:26:27;12.30;99.90
22925;DHT22;11628;51.072;3.712;2023-03-23T04:28:56;12.40;99.90
22925;DHT22;11628;51.072;3.712;2023-03-23T04:31:22;12.40;99.90
22925;DHT22;11628;51.072;3.712;2023-03-23T04:33:51;12.40;99.90
22925;DHT22;11628;51.072;3.712;2023-03-23T04:36:20;12.40;99.90
22925;DHT22;11628;51.072;3.712;2023-03-23T04:38:47;12.40;99.90
22925;DHT22;11628;51.072;3.712;2023-03-23T04:41:15;12.30;99.90
22925;DHT22;11628;51.072;3.712;2023-03-23T04:43:41;12.30;99.90
22925;DHT22;11628;51.072;3.712;2023-03-23T04:46:08;12.20;99.90
22925;DHT22;11628;51.072;3.712;2023-03-23T04:48:35;12.20;99.90
22925;DHT22;11628;51.072;3.712;2023-03-23T04:51:02;12.20;99.90
22925;DHT22;11628;51.072;3.712;2023-03-23T04:53:30;12.30;99.90
22925;DHT22;11628;51.072;3.712;2023-03-23T04:55:56;12.30;99.90
22925;DHT22;11628;51.072;3.712;2023-03-23T04:58:22;12.30;99.90
22925;DHT22;11628;51.072;3.712;2023-03-23T05:00:50;12.30;99.90
22925;DHT22;11628;51.072;3.712;2023-03-23T05:03:19;12.30;99.90
22925;DHT22;11628;51.072;3.712;2023-03-23T05:05:46;12.20;99.90
22925;DHT22;11628;51.072;3.712;2023-03-23T05:08:20;12.20;99.90
22925;DHT22;11628;51.072;3.712;2023-03-23T05:10:54;12.20;99.90
22925;DHT22;11628;51.072;3.712;2023-03-23T05:13:20;12.20;99.90
22925;DHT22;11628;51.072;3.712;2023-03-23T05:15:46;12.20;99.90
22925;DHT22;11628;51.072;3.712;2023-03-23T05:18:12;12.20;99.90
22925;DHT22;11628;51.072;3.712;2023-03-23T05:20:37;12.10;99.90
22925;DHT22;11628;51.072;3.712;2023-03-23T05:23:05;12.10;99.90
22925;DHT22;11628;51.072;3.712;2023-03-23T05:25:31;12.00;99.90
22925;DHT22;11628;51.072;3.712;2023-03-23T05:28:02;12.00;99.90
22925;DHT22;11628;51.072;3.712;2023-03-23T05:30:28;11.90;99.90
22925;DHT22;11628;51.072;3.712;2023-03-23T05:32:53;11.80;99.90
22925;DHT22;11628;51.072;3.712;2023-03-23T05:35:19;11.70;99.90
22925;DHT22;11628;51.072;3.712;2023-03-23T05:37:46;11.60;99.90
22925;DHT22;11628;51.072;3.712;2023-03-23T05:40:12;11.40;99.90
22925;DHT22;11628;51.072;3.712;2023-03-23T05:42:39;11.30;99.90
22925;DHT22;11628;51.072;3.712;2023-03-23T05:45:09;11.10;99.90
22925;DHT22;11628;51.072;3.712;2023-03-23T05:47:36;11.00;99.90
22925;DHT22;11628;51.072;3.712;2023-03-23T05:50:02;11.00;99.90
22925;DHT22;11628;51.072;3.712;2023-03-23T05:52:28;11.10;99.90
22925;DHT22;11628;51.072;3.712;2023-03-23T05:54:54;11.10;99.90
22925;DHT22;11628;51.072;3.712;2023-03-23T05:57:20;11.10;99.90
22925;DHT22;11628;51.072;3.712;2023-03-23T05:59:48;11.00;99.90
22925;DHT22;11628;51.072;3.712;2023-03-23T06:02:14;11.00;99.90
22925;DHT22;11628;51.072;3.712;2023-03-23T06:04:40;10.90;99.90
22925;DHT22;11628;51.072;3.712;2023-03-23T06:07:07;10.90;99.90
22925;DHT22;11628;51.072;3.712;2023-03-23T06:09:33;10.90;99.90
22925;DHT22;11628;51.072;3.712;2023-03-23T06:11:59;10.80;99.90
22925;DHT22;11628;51.072;3.712;2023-03-23T06:14:24;10.70;99.90
22925;DHT22;11628;51.072;3.712;2023-03-23T06:16:50;10.50;99.90
22925;DHT22;11628;51.072;3.712;2023-03-23T06:19:16;10.40;99.90
22925;DHT22;11628;51.072;3.712;2023-03-23T06:21:42;10.30;99.90
22925;DHT22;11628;51.072;3.712;2023-03-23T06:24:09;10.30;99.90
22925;DHT22;11628;51.072;3.712;2023-03-23T06:26:37;10.30;99.90
22925;DHT22;11628;51.072;3.712;2023-03-23T06:29:05;10.20;99.90
22925;DHT22;11628;51.072;3.712;2023-03-23T06:31:43;10.20;99.90
22925;DHT22;11628;51.072;3.712;2023-03-23T06:34:10;10.20;99.90
22925;DHT22;11628;51.072;3.712;2023-03-23T06:36:36;10.10;99.90
22925;DHT22;11628;51.072;3.712;2023-03-23T06:39:04;10.10;99.90
22925;DHT22;11628;51.072;3.712;2023-03-23T06:41:31;10.10;99.90
22925;DHT22;11628;51.072;3.712;2023-03-23T06:43:57;10.10;99.90
22925;DHT22;11628;51.072;3.712;2023-03-23T06:46:23;10.10;99.90
22925;DHT22;11628;51.072;3.712;2023-03-23T06:48:50;10.10;99.90
22925;DHT22;11628;51.072;3.712;2023-03-23T06:51:17;10.10;99.90
22925;DHT22;11628;51.072;3.712;2023-03-23T06:53:43;10.00;99.90
22925;DHT22;11628;51.072;3.712;2023-03-23T06:56:10;10.00;99.90
22925;DHT22;11628;51.072;3.712;2023-03-23T06:58:37;10.00;99.90
22925;DHT22;11628;51.072;3.712;2023-03-23T07:01:03;9.90;99.90
22925;DHT22;11628;51.072;3.712;2023-03-23T07:03:30;9.90;99.90
22925;DHT22;11628;51.072;3.712;2023-03-23T07:05:57;9.90;99.90
22925;DHT22;11628;51.072;3.712;2023-03-23T07:08:24;9.90;99.90
22925;DHT22;11628;51.072;3.712;2023-03-23T07:10:54;9.90;99.90
22925;DHT22;11628;51.072;3.712;2023-03-23T07:13:20;9.90;99.90
22925;DHT22;11628;51.072;3.712;2023-03-23T07:15:47;10.00;99.90
22925;DHT22;11628;51.072;3.712;2023-03-23T07:18:13;10.00;99.90
22925;DHT22;11628;51.072;3.712;2023-03-23T07:20:39;10.00;99.90
22925;DHT22;11628;51.072;3.712;2023-03-23T07:23:05;10.00;99.90
22925;DHT22;11628;51.072;3.712;2023-03-23T07:25:32;10.10;99.90
22925;DHT22;11628;51.072;3.712;2023-03-23T07:28:00;10.10;99.90
22925;DHT22;11628;51.072;3.712;2023-03-23T07:30:26;10.10;99.90
22925;DHT22;11628;51.072;3.712;2023-03-23T07:32:54;10.20;99.90
22925;DHT22;11628;51.072;3.712;2023-03-23T07:35:20;10.30;99.90
22925;DHT22;11628;51.072;3.712;2023-03-23T07:37:47;10.30;99.90
22925;DHT22;11628;51.072;3.712;2023-03-23T07:40:15;10.20;99.90
22925;DHT22;11628;51.072;3.712;2023-03-23T07:42:45;10.20;99.90
22925;DHT22;11628;51.072;3.712;2023-03-23T07:45:13;10.20;99.90
22925;DHT22;11628;51.072;3.712;2023-03-23T07:47:39;10.20;99.90
22925;DHT22;11628;51.072;3.712;2023-03-23T07:50:06;10.30;99.90
22925;DHT22;11628;51.072;3.712;2023-03-23T07:52:34;10.40;99.90
22925;DHT22;11628;51.072;3.712;2023-03-23T07:55:00;10.50;99.90
22925;DHT22;11628;51.072;3.712;2023-03-23T07:57:30;10.70;99.90
22925;DHT22;11628;51.072;3.712;2023-03-23T07:59:56;10.80;99.90
22925;DHT22;11628;51.072;3.712;2023-03-23T08:02:23;10.80;99.90
22925;DHT22;11628;51.072;3.712;2023-03-23T08:04:49;10.90;99.90
22925;DHT22;11628;51.072;3.712;2023-03-23T08:07:16;10.90;99.90
22925;DHT22;11628;51.072;3.712;2023-03-23T08:09:46;11.00;99.90
22925;DHT22;11628;51.072;3.712;2023-03-23T08:12:13;11.10;99.90
22925;DHT22;11628;51.072;3.712;2023-03-23T08:14:39;11.70;99.90
22925;DHT22;11628;51.072;3.712;2023-03-23T08:17:07;12.40;99.90
22925;DHT22;11628;51.072;3.712;2023-03-23T08:19:34;13.00;99.90
22925;DHT22;11628;51.072;3.712;2023-03-23T08:22:03;13.90;99.90
22925;DHT22;11628;51.072;3.712;2023-03-23T08:24:30;15.10;99.90
22925;DHT22;11628;51.072;3.712;2023-03-23T08:26:58;15.60;99.90
22925;DHT22;11628;51.072;3.712;2023-03-23T08:29:24;15.50;99.90
22925;DHT22;11628;51.072;3.712;2023-03-23T08:31:50;15.90;99.90
22925;DHT22;11628;51.072;3.712;2023-03-23T08:34:16;15.80;99.90
22925;DHT22;11628;51.072;3.712;2023-03-23T08:36:42;15.60;99.90
22925;DHT22;11628;51.072;3.712;2023-03-23T08:39:10;16.10;99.90
22925;DHT22;11628;51.072;3.712;2023-03-23T08:41:35;16.00;99.90
22925;DHT22;11628;51.072;3.712;2023-03-23T08:44:01;16.20;99.90
22925;DHT22;11628;51.072;3.712;2023-03-23T08:46:27;16.00;99.90
22925;DHT22;11628;51.072;3.712;2023-03-23T08:48:53;16.70;99.90
22925;DHT22;11628;51.072;3.712;2023-03-23T08:51:19;17.40;99.90
22925;DHT22;11628;51.072;3.712;2023-03-23T08:53:45;15.60;99.90
22925;DHT22;11628;51.072;3.712;2023-03-23T08:56:11;14.50;99.90
22925;DHT22;11628;51.072;3.712;2023-03-23T08:58:39;15.30;99.90
22925;DHT22;11628;51.072;3.712;2023-03-23T09:01:06;15.00;99.90
22925;DHT22;11628;51.072;3.712;2023-03-23T09:03:33;14.60;99.90
22925;DHT22;11628;51.072;3.712;2023-03-23T09:06:05;14.50;99.90
22925;DHT22;11628;51.072;3.712;2023-03-23T09:08:32;15.20;99.90
22925;DHT22;11628;51.072;3.712;2023-03-23T09:11:08;16.10;99.90
22925;DHT22;11628;51.072;3.712;2023-03-23T09:13:36;16.40;99.90
22925;DHT22;11628;51.072;3.712;2023-03-23T09:16:02;15.60;99.90
22925;DHT22;11628;51.072;3.712;2023-03-23T09:18:30;16.50;99.90
22925;DHT22;11628;51.072;3.712;2023-03-23T09:20:58;17.30;99.90
22925;DHT22;11628;51.072;3.712;2023-03-23T09:23:26;17.60;99.90
22925;DHT22;11628;51.072;3.712;2023-03-23T09:25:52;18.00;99.90
22925;DHT22;11628;51.072;3.712;2023-03-23T09:28:19;18.60;99.90
22925;DHT22;11628;51.072;3.712;2023-03-23T09:30:45;18.60;99.90
22925;DHT22;11628;51.072;3.712;2023-03-23T09:33:13;18.70;99.90
22925;DHT22;11628;51.072;3.712;2023-03-23T09:35:39;18.20;99.90
22925;DHT22;11628;51.072;3.712;2023-03-23T09:38:08;17.80;99.90
22925;DHT22;11628;51.072;3.712;2023-03-23T09:40:46;18.20;99.90
22925;DHT22;11628;51.072;3.712;2023-03-23T09:43:29;19.50;99.90
22925;DHT22;11628;51.072;3.712;2023-03-23T09:46:09;20.30;99.90
22925;DHT22;11628;51.072;3.712;2023-03-23T09:48:55;20.50;99.90
22925;DHT22;11628;51.072;3.712;2023-03-23T09:53:56;17.60;99.90
22925;DHT22;11628;51.072;3.712;2023-03-23T09:56:24;16.70;99.90
22925;DHT22;11628;51.072;3.712;2023-03-23T10:02:09;15.60;99.90
22925;DHT22;11628;51.072;3.712;2023-03-23T10:04:43;15.70;99.90
22925;DHT22;11628;51.072;3.712;2023-03-23T10:09:41;15.20;99.90
22925;DHT22;11628;51.072;3.712;2023-03-23T10:22:14;15.00;99.90
22925;DHT22;11628;51.072;3.712;2023-03-23T10:24:43;15.20;99.90
22925;DHT22;11628;51.072;3.712;2023-03-23T10:27:33;15.40;99.90
22925;DHT22;11628;51.072;3.712;2023-03-23T10:30:15;15.20;99.90
22925;DHT22;11628;51.072;3.712;2023-03-23T10:32:56;15.00;99.90
22925;DHT22;11628;51.072;3.712;2023-03-23T10:35:38;14.80;99.90
22925;DHT22;11628;51.072;3.712;2023-03-23T10:38:11;14.90;99.90
22925;DHT22;11628;51.072;3.712;2023-03-23T10:40:55;14.90;99.90
22925;DHT22;11628;51.072;3.712;2023-03-23T10:43:23;15.00;99.90
22925;DHT22;11628;51.072;3.712;2023-03-23T10:45:58;14.90;99.90
22925;DHT22;11628;51.072;3.712;2023-03-23T10:48:31;14.70;99.90
22925;DHT22;11628;51.072;3.712;2023-03-23T10:51:02;14.40;99.90
22925;DHT22;11628;51.072;3.712;2023-03-23T10:53:43;14.20;99.90
22925;DHT22;11628;51.072;3.712;2023-03-23T10:56:43;13.60;99.90
22925;DHT22;11628;51.072;3.712;2023-03-23T10:59:20;13.00;99.90
22925;DHT22;11628;51.072;3.712;2023-03-23T11:01:50;12.70;99.90
22925;DHT22;11628;51.072;3.712;2023-03-23T11:04:17;12.60;99.90
22925;DHT22;11628;51.072;3.712;2023-03-23T11:06:52;12.60;99.90
22925;DHT22;11628;51.072;3.712;2023-03-23T11:09:20;12.60;99.90
22925;DHT22;11628;51.072;3.712;2023-03-23T11:11:52;13.80;99.90
22925;DHT22;11628;51.072;3.712;2023-03-23T11:14:26;14.20;99.90
22925;DHT22;11628;51.072;3.712;2023-03-23T11:16:57;15.50;99.90
22925;DHT22;11628;51.072;3.712;2023-03-23T11:19:31;16.90;99.90
22925;DHT22;11628;51.072;3.712;2023-03-23T11:22:27;17.70;99.90
22925;DHT22;11628;51.072;3.712;2023-03-23T11:24:55;18.90;99.90
22925;DHT22;11628;51.072;3.712;2023-03-23T11:27:23;18.20;99.90
22925;DHT22;11628;51.072;3.712;2023-03-23T11:29:53;16.70;99.90
22925;DHT22;11628;51.072;3.712;2023-03-23T11:32:24;15.60;99.90
22925;DHT22;11628;51.072;3.712;2023-03-23T11:34:56;14.90;99.90
22925;DHT22;11628;51.072;3.712;2023-03-23T11:37:32;14.50;99.90
22925;DHT22;11628;51.072;3.712;2023-03-23T11:42:42;13.40;99.90
22925;DHT22;11628;51.072;3.712;2023-03-23T11:50:57;14.30;99.90
22925;DHT22;11628;51.072;3.712;2023-03-23T11:53:47;15.40;99.90
22925;DHT22;11628;51.072;3.712;2023-03-23T11:59:28;19.70;99.90
22925;DHT22;11628;51.072;3.712;2023-03-23T12:07:36;21.30;99.90
22925;DHT22;11628;51.072;3.712;2023-03-23T12:13:18;22.20;99.90
22925;DHT22;11628;51.072;3.712;2023-03-23T12:16:20;21.80;99.90
22925;DHT22;11628;51.072;3.712;2023-03-23T12:21:49;22.40;99.90
22925;DHT22;11628;51.072;3.712;2023-03-23T12:27:28;22.30;99.90
22925;DHT22;11628;51.072;3.712;2023-03-23T12:30:11;21.70;99.90
22925;DHT22;11628;51.072;3.712;2023-03-23T12:35:36;19.70;99.90
22925;DHT22;11628;51.072;3.712;2023-03-23T12:38:25;19.30;99.90
22925;DHT22;11628;51.072;3.712;2023-03-23T12:41:17;19.80;99.90
22925;DHT22;11628;51.072;3.712;2023-03-23T12:44:00;20.30;99.90
22925;DHT22;11628;51.072;3.712;2023-03-23T12:49:21;21.00;99.90
22925;DHT22;11628;51.072;3.712;2023-03-23T12:51:59;21.90;99.90
22925;DHT22;11628;51.072;3.712;2023-03-23T12:54:42;22.60;99.90
22925;DHT22;11628;51.072;3.712;2023-03-23T12:57:22;23.00;99.90
22925;DHT22;11628;51.072;3.712;2023-03-23T13:07:55;21.70;99.90
22925;DHT22;11628;51.072;3.712;2023-03-23T13:10:24;21.70;99.90
22925;DHT22;11628;51.072;3.712;2023-03-23T13:12:52;23.20;99.90
22925;DHT22;11628;51.072;3.712;2023-03-23T13:15:31;23.30;99.90
22925;DHT22;11628;51.072;3.712;2023-03-23T13:18:30;23.40;99.90
22925;DHT22;11628;51.072;3.712;2023-03-23T13:21:18;23.40;99.90
22925;DHT22;11628;51.072;3.712;2023-03-23T13:23:53;24.10;99.90
22925;DHT22;11628;51.072;3.712;2023-03-23T13:26:21;24.60;99.90
22925;DHT22;11628;51.072;3.712;2023-03-23T13:28:55;22.60;99.90
22925;DHT22;11628;51.072;3.712;2023-03-23T13:31:34;21.40;99.90
22925;DHT22;11628;51.072;3.712;2023-03-23T13:34:19;21.20;99.90
22925;DHT22;11628;51.072;3.712;2023-03-23T13:36:57;20.10;99.90
22925;DHT22;11628;51.072;3.712;2023-03-23T13:42:20;21.20;99.90
22925;DHT22;11628;51.072;3.712;2023-03-23T13:57:55;23.30;99.90
22925;DHT22;11628;51.072;3.712;2023-03-23T14:03:11;22.70;99.90
22925;DHT22;11628;51.072;3.712;2023-03-23T14:05:43;22.50;99.90
22925;DHT22;11628;51.072;3.712;2023-03-23T14:16:28;22.80;99.90
22925;DHT22;11628;51.072;3.712;2023-03-23T14:19:00;22.40;99.90
22925;DHT22;11628;51.072;3.712;2023-03-23T14:23:52;21.90;99.90
22925;DHT22;11628;51.072;3.712;2023-03-23T14:26:20;21.60;99.90
22925;DHT22;11628;51.072;3.712;2023-03-23T14:28:50;21.40;99.90
22925;DHT22;11628;51.072;3.712;2023-03-23T14:31:27;21.60;99.90
22925;DHT22;11628;51.072;3.712;2023-03-23T14:33:56;20.50;99.90
22925;DHT22;11628;51.072;3.712;2023-03-23T14:36:29;20.30;99.90
22925;DHT22;11628;51.072;3.712;2023-03-23T14:41:29;20.80;99.90
22925;DHT22;11628;51.072;3.712;2023-03-23T14:43:55;21.70;99.90
22925;DHT22;11628;51.072;3.712;2023-03-23T14:46:21;21.80;99.90
22925;DHT22;11628;51.072;3.712;2023-03-23T14:48:47;21.90;99.90
22925;DHT22;11628;51.072;3.712;2023-03-23T14:51:20;22.00;99.90
22925;DHT22;11628;51.072;3.712;2023-03-23T14:53:46;21.90;99.90
22925;DHT22;11628;51.072;3.712;2023-03-23T14:56:19;22.20;99.90
22925;DHT22;11628;51.072;3.712;2023-03-23T14:58:46;22.30;99.90
22925;DHT22;11628;51.072;3.712;2023-03-23T15:01:27;22.10;99.90
22925;DHT22;11628;51.072;3.712;2023-03-23T15:04:14;21.70;99.90
22925;DHT22;11628;51.072;3.712;2023-03-23T15:06:44;21.30;99.90
22925;DHT22;11628;51.072;3.712;2023-03-23T15:09:17;21.00;99.90
22925;DHT22;11628;51.072;3.712;2023-03-23T15:11:52;20.70;99.90
22925;DHT22;11628;51.072;3.712;2023-03-23T15:14:26;20.30;99.90
22925;DHT22;11628;51.072;3.712;2023-03-23T15:16:54;19.80;99.90
22925;DHT22;11628;51.072;3.712;2023-03-23T15:19:28;19.50;99.90
22925;DHT22;11628;51.072;3.712;2023-03-23T15:22:06;19.20;99.90
22925;DHT22;11628;51.072;3.712;2023-03-23T15:27:28;18.50;99.90
22925;DHT22;11628;51.072;3.712;2023-03-23T15:29:56;18.50;99.90
22925;DHT22;11628;51.072;3.712;2023-03-23T15:32:31;18.30;99.90
22925;DHT22;11628;51.072;3.712;2023-03-23T15:35:11;18.10;99.90
22925;DHT22;11628;51.072;3.712;2023-03-23T15:37:42;17.90;99.90
22925;DHT22;11628;51.072;3.712;2023-03-23T15:40:19;18.40;99.90
22925;DHT22;11628;51.072;3.712;2023-03-23T15:42:46;18.90;99.90
22925;DHT22;11628;51.072;3.712;2023-03-23T15:50:32;19.10;99.90
22925;DHT22;11628;51.072;3.712;2023-03-23T15:52:58;18.70;99.90
22925;DHT22;11628;51.072;3.712;2023-03-23T15:55:27;18.10;99.90
22925;DHT22;11628;51.072;3.712;2023-03-23T15:57:55;17.60;99.90
22925;DHT22;11628;51.072;3.712;2023-03-23T16:00:26;17.10;99.90
22925;DHT22;11628;51.072;3.712;2023-03-23T16:02:56;16.70;99.90
22925;DHT22;11628;51.072;3.712;2023-03-23T16:05:23;16.10;99.90
22925;DHT22;11628;51.072;3.712;2023-03-23T16:07:50;15.70;99.90
22925;DHT22;11628;51.072;3.712;2023-03-23T16:10:19;15.50;99.90
22925;DHT22;11628;51.072;3.712;2023-03-23T16:12:45;15.40;99.90
22925;DHT22;11628;51.072;3.712;2023-03-23T16:15:12;15.40;99.90
22925;DHT22;11628;51.072;3.712;2023-03-23T16:17:38;15.50;99.90
22925;DHT22;11628;51.072;3.712;2023-03-23T16:20:20;15.60;99.90
22925;DHT22;11628;51.072;3.712;2023-03-23T16:22:47;15.70;99.90
22925;DHT22;11628;51.072;3.712;2023-03-23T16:25:13;15.80;99.90
22925;DHT22;11628;51.072;3.712;2023-03-23T16:27:40;15.90;99.90
22925;DHT22;11628;51.072;3.712;2023-03-23T16:30:22;16.00;99.90
22925;DHT22;11628;51.072;3.712;2023-03-23T16:32:49;16.00;99.90
22925;DHT22;11628;51.072;3.712;2023-03-23T16:35:19;16.10;99.90
22925;DHT22;11628;51.072;3.712;2023-03-23T16:37:55;16.20;99.90
22925;DHT22;11628;51.072;3.712;2023-03-23T16:40:22;16.20;99.90
22925;DHT22;11628;51.072;3.712;2023-03-23T16:42:49;16.20;99.90
22925;DHT22;11628;51.072;3.712;2023-03-23T16:45:16;16.20;99.90
22925;DHT22;11628;51.072;3.712;2023-03-23T16:47:42;16.20;99.90
22925;DHT22;11628;51.072;3.712;2023-03-23T16:50:12;16.20;99.90
22925;DHT22;11628;51.072;3.712;2023-03-23T16:52:43;16.20;99.90
22925;DHT22;11628;51.072;3.712;2023-03-23T16:55:10;16.20;99.90
22925;DHT22;11628;51.072;3.712;2023-03-23T16:57:37;16.20;99.90
22925;DHT22;11628;51.072;3.712;2023-03-23T17:00:09;16.20;99.90
22925;DHT22;11628;51.072;3.712;2023-03-23T17:02:37;16.10;99.90
22925;DHT22;11628;51.072;3.712;2023-03-23T17:05:05;16.10;99.90
22925;DHT22;11628;51.072;3.712;2023-03-23T17:07:30;16.00;99.90
22925;DHT22;11628;51.072;3.712;2023-03-23T17:09:56;16.10;99.90
22925;DHT22;11628;51.072;3.712;2023-03-23T17:12:22;16.10;99.90
22925;DHT22;11628;51.072;3.712;2023-03-23T17:14:47;16.00;99.90
22925;DHT22;11628;51.072;3.712;2023-03-23T17:17:13;16.10;99.90
22925;DHT22;11628;51.072;3.712;2023-03-23T17:19:39;16.00;99.90
22925;DHT22;11628;51.072;3.712;2023-03-23T17:22:06;16.00;99.90
22925;DHT22;11628;51.072;3.712;2023-03-23T17:24:31;16.00;99.90
22925;DHT22;11628;51.072;3.712;2023-03-23T17:26:57;15.90;99.90
22925;DHT22;11628;51.072;3.712;2023-03-23T17:29:23;15.90;99.90
22925;DHT22;11628;51.072;3.712;2023-03-23T17:31:49;15.90;99.90
22925;DHT22;11628;51.072;3.712;2023-03-23T17:34:16;15.80;99.90
22925;DHT22;11628;51.072;3.712;2023-03-23T17:36:44;15.80;99.90
22925;DHT22;11628;51.072;3.712;2023-03-23T17:39:10;15.70;99.90
22925;DHT22;11628;51.072;3.712;2023-03-23T17:41:37;15.70;99.90
22925;DHT22;11628;51.072;3.712;2023-03-23T17:44:03;15.70;99.90